Time;durP1;ratioP1;P1;durP2;ratioP2;P2;SDS_P1;SDS_P2;PMS_P1;PMS_P2;Temp;Humidity;BMP_temperature;BMP_pressure;BME280_temperature;BME280_humidity;BME280_pressure;Samples;Min_cycle;Max_cycle;Signal;HPM_P1;HPM_P2
2021/04/17 00:01:18;;;;;;;76.43;37.38;;;128.40;2124.80;;;;;;5073569;28;20091;-77
2021/04/17 00:03:44;;;;;;;71.70;35.25;;;128.30;2150.40;;;;;;5077719;28;20063;-77
2021/04/17 00:06:10;;;;;;;;;;;128.40;2124.80;;;;;;5076496;28;20028;-76
2021/04/17 00:08:36;;;;;;;70.82;35.13;;;128.40;2124.80;;;;;;5074771;28;19911;-78
2021/04/17 00:11:02;;;;;;;;;;;128.50;2124.80;;;;;;5094720;28;20469;-78
2021/04/17 00:13:28;;;;;;;64.93;31.52;;;128.70;2099.20;;;;;;5109846;28;19930;-77
2021/04/17 00:15:54;;;;;;;;;;;128.90;2073.60;;;;;;5094670;28;20032;-76
2021/04/17 00:18:20;;;;;;;167.35;75.60;;;128.90;2073.60;;;;;;5095094;28;19908;-92
2021/04/17 00:20:46;;;;;;;;;;;128.90;2073.60;;;;;;5094875;28;20039;-90
2021/04/17 00:23:11;;;;;;;112.20;55.28;;;128.90;2073.60;;;;;;5078727;28;19907;-89
2021/04/17 00:25:37;;;;;;;;;;;128.90;2073.60;;;;;;5104535;28;20057;-80
2021/04/17 00:28:03;;;;;;;130.75;60.70;;;153.60;2073.60;;;;;;5095319;28;20345;-77
2021/04/17 00:30:28;;;;;;;;;;;153.70;2048.00;;;;;;5099825;22;20059;-77
2021/04/17 00:32:54;;;;;;;141.93;66.57;;;153.80;2048.00;;;;;;5087461;28;19949;-89
2021/04/17 00:35:20;;;;;;;;;;;128.70;2124.80;;;;;;5086244;28;20031;-85
2021/04/17 00:37:45;;;;;;;112.30;47.83;;;128.50;2150.40;;;;;;5083345;28;19911;-76
2021/04/17 00:40:11;;;;;;;;;;;128.40;2150.40;;;;;;5079711;28;20043;-88
2021/04/17 00:42:37;;;;;;;104.70;49.03;;;128.30;2176.00;;;;;;5085349;28;19911;-90
2021/04/17 00:45:04;;;;;;;;;;;128.00;2227.20;;;;;;5078340;28;20060;-85
2021/04/17 00:47:30;;;;;;;68.57;33.35;;;103.10;2201.60;;;;;;5074910;28;19905;-89
2021/04/17 00:49:55;;;;;;;;;;;102.90;2227.20;;;;;;5101891;22;20043;-77
2021/04/17 00:52:21;;;;;;;95.75;44.25;;;103.00;2201.60;;;;;;5083971;28;19924;-90
2021/04/17 00:54:46;;;;;;;;;;;103.10;2201.60;;;;;;5085704;28;20016;-87
2021/04/17 00:57:12;;;;;;;96.82;43.83;;;103.10;2176.00;;;;;;5065239;28;19922;-88
2021/04/17 00:59:38;;;;;;;;;;;103.30;2150.40;;;;;;5082227;28;20031;-76
2021/04/17 01:02:04;;;;;;;78.03;35.78;;;103.00;2176.00;;;;;;5079338;28;19904;-77
2021/04/17 01:04:31;;;;;;;;;;;102.90;2176.00;;;;;;5088970;28;20478;-80
2021/04/17 01:07:13;;;;;;;76.85;35.08;;;103.10;2150.40;;;;;;5212168;22;19907;-75
2021/04/17 01:09:46;;;;;;;69.93;37.50;;;103.20;2124.80;;;;;;5052852;28;20037;-75
2021/04/17 01:12:16;;;;;;;102.18;45.80;;;128.10;2150.40;;;;;;5073528;28;20099;-76
2021/04/17 01:14:48;;;;;;;86.20;42.30;;;103.30;2176.00;;;;;;5054848;28;20481;-76
2021/04/17 01:17:15;;;;;;;91.10;42.40;;;103.00;2201.60;;;;;;5055662;28;20036;-78
2021/04/17 01:19:47;;;;;;;91.38;46.53;;;102.90;2227.20;;;;;;5072727;28;20024;-78
2021/04/17 01:22:24;;;;;;;88.68;42.45;;;102.80;2227.20;;;;;;5072311;28;20020;-80
2021/04/17 01:25:00;;;;;;;;;;;102.90;2227.20;;;;;;5074449;28;20021;-87
2021/04/17 01:27:27;;;;;;;96.30;50.20;;;103.20;2227.20;;;;;;5056243;28;20330;-76
2021/04/17 01:29:53;;;;;;;91.72;47.47;;;128.00;2227.20;;;;;;5074309;28;20300;-76
2021/04/17 01:32:20;;;;;;;99.60;47.63;;;128.00;2252.80;;;;;;5074934;28;20413;-86
2021/04/17 01:34:46;;;;;;;92.05;46.15;;;128.10;2252.80;;;;;;5074003;28;20024;-76
2021/04/17 01:37:13;;;;;;;86.90;40.20;;;128.10;2227.20;;;;;;5054326;28;20048;-76
2021/04/17 01:39:40;;;;;;;81.40;39.13;;;103.10;2227.20;;;;;;5070835;28;20060;-76
2021/04/17 01:42:09;;;;;;;100.53;49.88;;;103.20;2227.20;;;;;;5072443;28;20025;-77
2021/04/17 01:44:41;;;;;;;120.18;57.08;;;128.10;2227.20;;;;;;5072023;28;20088;-76
2021/04/17 01:47:12;;;;;;;107.22;55.08;;;128.30;2227.20;;;;;;5071615;28;20016;-76
2021/04/17 01:49:49;;;;;;;112.95;54.40;;;128.60;2201.60;;;;;;5071982;28;20031;-76
2021/04/17 01:52:20;;;;;;;100.60;50.85;;;128.30;2252.80;;;;;;5070303;28;20039;-76
2021/04/17 01:54:52;;;;;;;104.85;52.13;;;128.50;2201.60;;;;;;5071610;28;20024;-75
2021/04/17 01:57:26;;;;;;;89.32;45.17;;;128.60;2201.60;;;;;;5053388;28;20580;-77
2021/04/17 02:02:19;;;;;;;89.78;43.58;;;128.50;2201.60;;;;;;5162411;22;20055;-86
2021/04/17 02:04:45;;;;;;;87.28;45.45;;;128.00;2252.80;;;;;;5074850;28;20032;-81
2021/04/17 02:07:11;;;;;;;;;;;128.30;2227.20;;;;;;5094033;28;20028;-77
2021/04/17 02:09:37;;;;;;;96.68;49.22;;;128.20;2252.80;;;;;;5146011;22;19974;-76
2021/04/17 02:12:03;;;;;;;91.95;46.10;;;128.30;2252.80;;;;;;5073943;28;20036;-85
2021/04/17 02:14:29;;;;;;;86.20;44.90;;;128.30;2252.80;;;;;;5074225;28;20028;-78
2021/04/17 02:17:14;;;;;;;77.95;39.00;;;128.50;2227.20;;;;;;5074391;28;20040;-77
2021/04/17 02:20:04;;;;;;;70.07;38.33;;;128.40;2227.20;;;;;;5074710;28;20043;-79
2021/04/17 02:22:34;;;;;;;67.50;35.28;;;102.80;2227.20;;;;;;5092069;28;20044;-81
2021/04/17 02:25:02;;;;;;;69.53;34.17;;;102.80;2227.20;;;;;;5091730;28;20016;-78
2021/04/17 02:27:27;;;;;;;69.90;36.33;;;103.20;2227.20;;;;;;5092350;28;20061;-83
2021/04/17 02:29:55;;;;;;;63.25;33.40;;;103.20;2227.20;;;;;;5073368;28;20024;-84
2021/04/17 02:32:22;;;;;;;66.95;36.83;;;103.20;2227.20;;;;;;5073115;28;20032;-78
2021/04/17 02:34:48;;;;;;;66.45;36.00;;;128.00;2252.80;;;;;;5091077;28;20110;-79
2021/04/17 02:37:14;;;;;;;65.97;35.58;;;103.20;2227.20;;;;;;5072469;28;20035;-79
2021/04/17 02:39:41;;;;;;;66.55;34.53;;;128.00;2252.80;;;;;;5090145;28;20027;-78
2021/04/17 02:42:08;;;;;;;74.75;38.22;;;128.20;2252.80;;;;;;5089571;28;20032;-78
2021/04/17 02:44:34;;;;;;;64.28;35.72;;;103.10;2227.20;;;;;;5089877;28;20024;-84
2021/04/17 02:47:11;;;;;;;64.47;35.00;;;102.90;2227.20;;;;;;5073164;28;20522;-83
2021/04/17 02:49:37;;;;;;;68.45;35.80;;;102.80;2227.20;;;;;;5092036;28;20028;-83
2021/04/17 02:52:02;;;;;;;;;;;102.90;2227.20;;;;;;5091590;28;20436;-79
2021/04/17 02:54:28;;;;;;;67.53;34.70;;;102.90;2227.20;;;;;;5092358;28;20014;-84
2021/04/17 02:56:54;;;;;;;;;;;128.00;2252.80;;;;;;5093355;28;20570;-85
2021/04/17 02:59:19;;;;;;;60.70;31.92;;;103.30;2227.20;;;;;;5190127;22;19899;-82
2021/04/17 03:01:46;;;;;;;;;;;103.00;2227.20;;;;;;5073364;28;20064;-81
2021/04/17 03:04:11;;;;;;;60.35;30.15;;;102.80;2227.20;;;;;;5092199;28;19915;-80
2021/04/17 03:06:37;;;;;;;57.50;32.58;;;103.00;2227.20;;;;;;5089213;28;20032;-84
2021/04/17 03:09:03;;;;;;;;;;;103.20;2227.20;;;;;;5094482;28;20586;-84
2021/04/17 03:11:28;;;;;;;60.03;32.05;;;128.10;2252.80;;;;;;5089515;28;19911;-79
2021/04/17 03:13:54;;;;;;;;;;;128.20;2252.80;;;;;;5089613;28;20547;-83
2021/04/17 03:16:20;;;;;;;56.10;28.77;;;128.10;2252.80;;;;;;5091512;28;19931;-78
2021/04/17 03:18:45;;;;;;;;;;;103.30;2227.20;;;;;;5222305;22;21247;-77
2021/04/17 03:21:11;;;;;;;61.72;31.20;;;103.30;2227.20;;;;;;5056781;28;20292;-78
2021/04/17 03:23:37;;;;;;;;;;;128.10;2252.80;;;;;;5062008;28;20138;-78
2021/04/17 03:26:03;;;;;;;59.80;32.67;;;128.20;2252.80;;;;;;5053238;28;20273;-78
2021/04/17 03:28:30;;;;;;;60.95;32.83;;;128.20;2252.80;;;;;;5252807;22;20048;-79
2021/04/17 03:30:56;;;;;;;65.70;33.72;;;103.30;2227.20;;;;;;5078185;28;20055;-81
2021/04/17 03:33:22;;;;;;;;;;;128.00;2252.80;;;;;;5070925;28;20485;-79
2021/04/17 03:35:47;;;;;;;60.55;30.48;;;128.40;2252.80;;;;;;5099542;28;19919;-85
2021/04/17 03:38:13;;;;;;;;;;;128.70;2252.80;;;;;;5091923;28;20367;-83
2021/04/17 03:40:39;;;;;;;63.13;30.98;;;128.90;2227.20;;;;;;5073879;28;19912;-81
2021/04/17 03:43:04;;;;;;;;;;;128.80;2201.60;;;;;;5090199;28;20393;-83
2021/04/17 03:45:31;;;;;;;58.42;30.95;;;128.60;2252.80;;;;;;5073991;28;19912;-82
2021/04/17 03:47:57;;;;;;;59.53;29.48;;;128.70;2252.80;;;;;;5073853;28;20048;-83
2021/04/17 03:50:22;;;;;;;;;;;128.90;2227.20;;;;;;5074610;28;20044;-81
2021/04/17 03:52:48;;;;;;;56.92;30.83;;;153.70;2201.60;;;;;;5074871;28;19904;-84
2021/04/17 03:55:15;;;;;;;;;;;153.60;2201.60;;;;;;5075632;28;20029;-82
2021/04/17 03:57:42;;;;;;;42.83;21.80;;;128.90;2201.60;;;;;;5118734;22;19920;-79
2021/04/17 04:00:10;;;;;;;51.17;27.50;;;128.60;2252.80;;;;;;5094633;28;20024;-78
2021/04/17 04:02:36;;;;;;;47.42;26.45;;;153.70;2201.60;;;;;;5076734;28;20124;-78
2021/04/17 04:05:04;;;;;;;52.42;27.10;;;153.70;2201.60;;;;;;5076791;28;20111;-78
2021/04/17 04:07:29;;;;;;;56.22;29.08;;;153.70;2201.60;;;;;;5094875;28;20028;-78
2021/04/17 04:09:55;;;;;;;62.35;28.90;;;153.70;2227.20;;;;;;5094578;28;20047;-78
2021/04/17 04:12:21;;;;;;;;;;;153.70;2227.20;;;;;;5077141;28;20446;-78
2021/04/17 04:14:46;;;;;;;54.75;28.45;;;153.80;2176.00;;;;;;5081205;28;19904;-79
2021/04/17 04:17:12;;;;;;;;;;;153.60;2201.60;;;;;;5093836;28;20520;-79
2021/04/17 04:19:38;;;;;;;49.80;27.23;;;128.90;2227.20;;;;;;5093817;28;19999;-78
2021/04/17 04:22:03;;;;;;;;;;;153.70;2201.60;;;;;;5094055;28;20016;-82
2021/04/17 04:24:29;;;;;;;51.35;26.95;;;153.90;2176.00;;;;;;5093810;28;19912;-78
2021/04/17 04:26:54;;;;;;;;;;;154.00;2176.00;;;;;;5097575;28;20496;-78
2021/04/17 04:29:20;;;;;;;62.25;33.95;;;154.00;2176.00;;;;;;5108676;28;19904;-80
2021/04/17 04:31:46;;;;;;;60.22;34.70;;;154.10;2176.00;;;;;;5093829;28;20028;-79
2021/04/17 04:34:12;;;;;;;;;;;154.10;2150.40;;;;;;5071843;28;20044;-82
2021/04/17 04:36:37;;;;;;;72.60;35.38;;;154.30;2124.80;;;;;;5074112;28;19912;-79
2021/04/17 04:39:04;;;;;;;;;;;154.40;2124.80;;;;;;5075702;28;20441;-84
2021/04/17 04:41:29;;;;;;;69.57;34.92;;;154.50;2124.80;;;;;;5093420;28;19904;-79
2021/04/17 04:43:55;;;;;;;;;;;154.50;2099.20;;;;;;5094635;28;20028;-78
2021/04/17 04:46:21;;;;;;;60.47;32.35;;;179.30;2073.60;;;;;;5081602;28;19940;-78
2021/04/17 04:48:46;;;;;;;;;;;179.20;2099.20;;;;;;5100656;28;20104;-79
2021/04/17 04:51:12;;;;;;;71.13;33.78;;;179.20;2099.20;;;;;;5075197;28;20353;-80
2021/04/17 04:53:38;;;;;;;;;;;154.50;2099.20;;;;;;5072791;28;20066;-79
2021/04/17 04:58:30;;;;;;;64.78;35.20;;;154.30;2227.20;;;;;;5099032;22;20190;-81
2021/04/17 05:00:56;;;;;;;;;;;154.50;2176.00;;;;;;5093688;28;20544;-79
2021/04/17 05:03:22;;;;;;;76.40;34.50;;;154.50;2150.40;;;;;;5075499;28;20002;-83
2021/04/17 05:05:47;;;;;;;;;;;154.30;2201.60;;;;;;5075944;28;20476;-79
2021/04/17 05:08:13;;;;;;;54.67;29.88;;;154.50;2201.60;;;;;;5076446;28;19935;-84
2021/04/17 05:10:38;;;;;;;;;;;154.50;2176.00;;;;;;5094102;28;20354;-78
2021/04/17 05:13:04;;;;;;;53.50;29.13;;;154.40;2150.40;;;;;;5101567;22;19965;-78
2021/04/17 05:15:30;;;;;;;;;;;154.30;2227.20;;;;;;5075678;28;20046;-83
2021/04/17 05:17:55;;;;;;;48.80;26.70;;;154.50;2176.00;;;;;;5093323;28;20003;-83
2021/04/17 05:20:21;;;;;;;;;;;179.30;2176.00;;;;;;5093617;28;20030;-79
2021/04/17 05:22:47;;;;;;;51.95;28.45;;;179.30;2150.40;;;;;;5071910;28;19904;-79
2021/04/17 05:25:13;;;;;;;48.67;27.33;;;154.50;2201.60;;;;;;5075391;28;20024;-82
2021/04/17 05:27:38;;;;;;;;;;;154.50;2201.60;;;;;;5075532;28;20110;-79
2021/04/17 05:30:05;;;;;;;52.95;27.33;;;154.30;2252.80;;;;;;5093207;28;20367;-84
2021/04/17 05:32:31;;;;;;;52.28;27.80;;;154.20;2252.80;;;;;;5091862;28;20024;-84
2021/04/17 05:34:56;;;;;;;;;;;154.50;2252.80;;;;;;5061663;28;20491;-84
2021/04/17 05:37:22;;;;;;;45.75;25.02;;;179.30;2176.00;;;;;;5074371;28;20006;-78
2021/04/17 05:39:47;;;;;;;;;;;179.20;2176.00;;;;;;5090790;28;20066;-78
2021/04/17 05:42:13;;;;;;;43.28;24.40;;;179.50;2124.80;;;;;;5074502;28;19922;-78
2021/04/17 05:44:39;;;;;;;;;;;179.60;2124.80;;;;;;5092300;28;20024;-80
2021/04/17 05:47:05;;;;;;;43.10;23.25;;;179.40;2124.80;;;;;;5092606;28;19966;-84
2021/04/17 05:49:30;;;;;;;;;;;179.60;2150.40;;;;;;5093311;28;20012;-78
2021/04/17 05:51:56;;;;;;;36.33;22.08;;;179.50;2176.00;;;;;;5099069;28;19990;-83
2021/04/17 05:54:21;;;;;;;;;;;179.50;2201.60;;;;;;5074856;28;20020;-78
2021/04/17 05:56:47;;;;;;;35.40;20.35;;;179.70;2073.60;;;;;;5097071;28;20388;-78
2021/04/17 05:59:13;;;;;;;;;;;179.60;2150.40;;;;;;5092118;28;20016;-78
2021/04/17 06:01:39;;;;;;;37.63;19.98;;;179.80;2099.20;;;;;;5092164;28;19907;-80
2021/04/17 06:04:05;;;;;;;30.25;18.90;;;179.80;2073.60;;;;;;5074166;28;20024;-79
2021/04/17 06:06:31;;;;;;;;;;;179.90;2073.60;;;;;;5074854;28;20157;-79
2021/04/17 06:08:56;;;;;;;27.88;16.35;;;180.10;2022.40;;;;;;5099573;28;19904;-79
2021/04/17 06:11:22;;;;;;;;;;;180.10;1996.80;;;;;;5074516;28;20048;-84
2021/04/17 06:13:48;;;;;;;31.73;17.90;;;180.10;1971.20;;;;;;5202064;22;19934;-83
2021/04/17 06:16:13;;;;;;;;;;;180.10;2022.40;;;;;;5092649;28;20377;-83
2021/04/17 06:18:39;;;;;;;22.77;14.68;;;180.10;2022.40;;;;;;5074048;28;20014;-84
2021/04/17 06:21:05;;;;;;;;;;;205.00;1971.20;;;;;;5090674;28;20039;-80
2021/04/17 06:23:33;;;;;;;28.83;16.58;;;205.10;1996.80;;;;;;5074354;28;20435;-79
2021/04/17 06:25:58;;;;;;;28.10;15.23;;;205.20;1945.60;;;;;;5074010;28;20055;-80
2021/04/17 06:28:24;;;;;;;;;;;205.20;1945.60;;;;;;5074405;28;20540;-80
2021/04/17 06:30:50;;;;;;;24.70;14.57;;;205.20;2022.40;;;;;;5099046;28;19913;-79
2021/04/17 06:33:15;;;;;;;;;;;205.30;1996.80;;;;;;5073848;23;20058;-81
2021/04/17 06:35:42;;;;;;;26.30;14.60;;;205.30;1945.60;;;;;;5073902;28;20403;-80
2021/04/17 06:38:13;;;;;;;29.83;16.05;;;205.30;2022.40;;;;;;5091998;28;20024;-79
2021/04/17 06:40:39;;;;;;;25.60;14.35;;;205.50;2022.40;;;;;;5073682;28;20032;-80
2021/04/17 06:43:05;;;;;;;;;;;205.70;1945.60;;;;;;5073313;28;20535;-78
2021/04/17 06:45:38;;;;;;;24.48;14.32;;;230.40;1920.00;;;;;;5091590;28;19907;-82
2021/04/17 06:48:09;;;;;;;24.02;14.73;;;230.50;1945.60;;;;;;5073407;28;20513;-79
2021/04/17 06:50:37;;;;;;;24.00;15.18;;;230.80;1843.20;;;;;;5072758;28;20051;-79
2021/04/17 06:53:14;;;;;;;22.80;13.65;;;231.10;1843.20;;;;;;5073286;28;20492;-82
2021/04/17 06:55:40;;;;;;;19.13;12.73;;;231.00;1766.40;;;;;;5091849;28;20485;-85
2021/04/17 06:58:06;;;;;;;;;;;231.20;1792.00;;;;;;5091840;28;20016;-80
2021/04/17 07:00:31;;;;;;;17.17;10.88;;;256.00;1792.00;;;;;;5073616;28;19904;-81
2021/04/17 07:02:57;;;;;;;;;;;256.00;1715.20;;;;;;5073663;28;20409;-85
2021/04/17 07:05:23;;;;;;;18.13;9.85;;;256.20;1664.00;;;;;;5095890;28;19908;-78
2021/04/17 07:07:49;;;;;;;;;;;256.20;1587.20;;;;;;5073528;28;20024;-78
2021/04/17 07:10:15;;;;;;;16.60;9.13;;;256.10;1587.20;;;;;;5099160;28;19908;-82
2021/04/17 07:12:44;;;;;;;13.90;8.50;;;256.20;1561.60;;;;;;5077816;28;20035;-81
2021/04/17 07:15:12;;;;;;;17.08;9.77;;;256.00;1484.80;;;;;;5096108;28;20027;-80
2021/04/17 07:17:38;;;;;;;15.77;10.63;;;256.00;1510.40;;;;;;5078219;28;20034;-81
2021/04/17 07:20:16;;;;;;;14.57;10.30;;;256.20;1561.60;;;;;;5086639;22;20419;-79
2021/04/17 07:22:42;;;;;;;18.23;12.07;;;256.20;1587.20;;;;;;5093409;28;20150;-84
2021/04/17 07:25:07;;;;;;;18.35;11.65;;;256.50;1587.20;;;;;;5095588;28;20031;-79
2021/04/17 07:27:37;;;;;;;16.73;11.30;;;256.50;1638.40;;;;;;5095647;28;20024;-80
2021/04/17 07:30:25;;;;;;;17.60;11.20;;;256.50;1536.00;;;;;;5084053;22;20076;-80
2021/04/17 07:33:14;;;;;;;16.27;10.50;;;256.70;1510.40;;;;;;5074284;28;20102;-81
2021/04/17 07:35:53;;;;;;;17.95;11.05;;;256.20;1561.60;;;;;;5074793;28;20028;-87
2021/04/17 07:38:32;;;;;;;19.52;11.30;;;256.30;1510.40;;;;;;5050628;28;20102;-88
2021/04/17 07:41:04;;;;;;;16.90;9.70;;;256.50;1510.40;;;;;;5054513;28;20021;-86
2021/04/17 07:43:51;;;;;;;15.27;10.07;;;256.70;1484.80;;;;;;5056951;28;20020;-87
2021/04/17 07:46:21;;;;;;;16.75;9.82;;;256.70;1408.00;;;;;;5057144;28;20166;-86
2021/04/17 07:48:47;;;;;;;10.60;7.03;;;281.60;1459.20;;;;;;5075209;28;20028;-80
2021/04/17 07:51:13;;;;;;;10.10;7.13;;;281.70;1408.00;;;;;;5056517;28;20036;-86
2021/04/17 07:53:44;;;;;;;12.90;8.20;;;281.80;1408.00;;;;;;5075691;28;20027;-84
2021/04/17 07:56:27;;;;;;;10.88;7.35;;;281.90;1382.40;;;;;;5072635;22;20500;-80
2021/04/17 07:59:05;;;;;;;11.00;6.90;;;281.80;1331.20;;;;;;5075579;28;20039;-85
2021/04/17 08:01:33;;;;;;;11.30;6.78;;;282.10;1356.80;;;;;;5076982;28;20408;-80
2021/04/17 08:04:00;;;;;;;13.13;7.00;;;282.20;1305.60;;;;;;5076879;28;20473;-80
2021/04/17 08:06:27;;;;;;;11.32;7.97;;;282.00;1356.80;;;;;;5076958;28;20028;-81
2021/04/17 08:08:54;;;;;;;10.98;6.80;;;282.20;1280.00;;;;;;5075662;28;20024;-89
2021/04/17 08:11:23;;;;;;;10.13;6.85;;;282.30;1280.00;;;;;;5072065;28;20480;-79
2021/04/17 08:13:50;;;;;;;9.63;6.43;;;282.50;1254.40;;;;;;5067418;28;20050;-80
2021/04/17 08:16:17;;;;;;;21.73;8.23;;;282.50;1254.40;;;;;;5071405;28;20078;-81
2021/04/17 08:18:44;;;;;;;9.55;6.53;;;282.40;1305.60;;;;;;5078668;28;20023;-79
2021/04/17 08:21:14;;;;;;;16.48;8.13;;;307.20;1382.40;;;;;;5075583;28;20028;-84
2021/04/17 08:23:44;;;;;;;10.07;6.95;;;307.30;1408.00;;;;;;5193059;23;20051;-81
2021/04/17 08:26:11;;;;;;;9.82;7.45;;;282.50;1228.80;;;;;;5093918;28;20027;-80
2021/04/17 08:28:44;;;;;;;9.80;7.18;;;282.50;1203.20;;;;;;5094189;28;20024;-85
2021/04/17 08:31:31;;;;;;;10.02;6.13;;;307.40;1280.00;;;;;;5078218;28;20016;-82
2021/04/17 08:34:21;;;;;;;11.10;7.35;;;307.50;1280.00;;;;;;5090871;28;20036;-81
2021/04/17 08:37:13;;;;;;;10.18;6.95;;;307.70;1305.60;;;;;;5093125;28;20032;-81
2021/04/17 08:39:40;;;;;;;10.30;7.13;;;307.80;1228.80;;;;;;5088546;28;20127;-86
2021/04/17 08:42:40;;;;;;;9.93;6.75;;;307.70;1203.20;;;;;;5076417;28;20035;-79
2021/04/17 08:45:15;;;;;;;13.65;8.18;;;307.80;1280.00;;;;;;5124124;22;20052;-80
2021/04/17 08:47:46;;;;;;;19.77;11.47;;;307.30;1228.80;;;;;;5091693;28;20557;-81
2021/04/17 08:50:25;;;;;;;12.13;8.38;;;307.20;1331.20;;;;;;5090547;28;20275;-82
2021/04/17 08:53:10;;;;;;;13.68;9.05;;;282.30;1254.40;;;;;;5076981;28;20095;-81
2021/04/17 08:55:35;;;;;;;14.10;10.27;;;282.40;1305.60;;;;;;5077018;28;20025;-81
2021/04/17 08:58:23;;;;;;;13.43;9.20;;;282.20;1305.60;;;;;;5071907;28;20035;-83
2021/04/17 09:00:52;;;;;;;13.30;9.05;;;282.30;1331.20;;;;;;5058076;28;20019;-81
2021/04/17 09:03:44;;;;;;;14.88;8.00;;;282.30;1356.80;;;;;;5065869;28;20036;-79
2021/04/17 09:08:39;;;;;;;12.32;7.78;;;282.40;1280.00;;;;;;5081598;22;20048;-84
2021/04/17 09:11:34;;;;;;;14.52;9.30;;;282.20;1254.40;;;;;;5055322;28;20111;-81
2021/04/17 09:14:00;;;;;;;11.18;7.60;;;282.40;1331.20;;;;;;5073645;28;20474;-81
2021/04/17 09:16:39;;;;;;;19.75;8.18;;;307.20;1331.20;;;;;;5088744;28;20023;-83
2021/04/17 09:19:05;;;;;;;13.15;8.88;;;307.30;1305.60;;;;;;5055545;28;20119;-79
2021/04/17 09:21:33;;;;;;;13.73;8.98;;;282.50;1331.20;;;;;;5074034;28;20021;-80
2021/04/17 09:26:30;;;;;;;11.80;8.38;;;282.40;1305.60;;;;;;5210368;22;20090;-86
2021/04/17 09:29:06;;;;;;;12.63;8.77;;;282.20;1305.60;;;;;;5075359;28;20024;-80
2021/04/17 09:31:36;;;;;;;11.48;7.60;;;282.00;1280.00;;;;;;5075324;28;20020;-80
2021/04/17 09:34:16;;;;;;;11.82;7.90;;;281.90;1305.60;;;;;;5074881;28;20063;-85
2021/04/17 09:36:43;;;;;;;12.80;8.70;;;281.90;1305.60;;;;;;5074855;28;20036;-87
2021/04/17 09:39:45;;;;;;;13.00;9.23;;;282.40;1280.00;;;;;;5075555;28;20024;-81
2021/04/17 09:42:11;;;;;;;15.70;10.48;;;282.30;1331.20;;;;;;4991974;28;20042;-79
2021/04/17 09:44:45;;;;;;;13.10;8.27;;;282.30;1331.20;;;;;;5065424;23;20060;-86
2021/04/17 09:47:14;;;;;;;27.10;18.70;;;307.30;1280.00;;;;;;5055599;28;20070;-85
2021/04/17 09:49:46;;;;;;;18.67;11.70;;;307.50;1280.00;;;;;;5034823;28;20060;-82
2021/04/17 09:52:18;;;;;;;14.45;9.70;;;307.60;1254.40;;;;;;5050504;28;20116;-79
2021/04/17 09:54:46;;;;;;;19.15;11.85;;;307.60;1305.60;;;;;;5042166;28;20013;-80
2021/04/17 09:57:11;;;;;;;34.38;21.77;;;307.80;1280.00;;;;;;5034563;28;20037;-85
2021/04/17 09:59:37;;;;;;;30.70;18.98;;;307.80;1280.00;;;;;;5035039;28;20067;-80
2021/04/17 10:02:04;;;;;;;16.90;10.73;;;307.90;1280.00;;;;;;5052709;28;20104;-87
2021/04/17 10:04:57;;;;;;;15.90;9.95;;;308.00;1280.00;;;;;;5034484;28;20021;-85
2021/04/17 10:07:23;;;;;;;14.98;10.60;;;308.10;1280.00;;;;;;5052502;28;20013;-79
2021/04/17 10:10:04;;;;;;;17.23;10.65;;;332.90;1280.00;;;;;;5034738;28;20428;-85
2021/04/17 10:12:30;;;;;;;16.88;10.63;;;332.90;1280.00;;;;;;5034127;28;20125;-85
2021/04/17 10:15:19;;;;;;;14.07;9.80;;;332.80;1280.00;;;;;;5059247;28;20099;-80
2021/04/17 10:17:46;;;;;;;13.20;9.23;;;333.10;1228.80;;;;;;5054220;28;20040;-86
2021/04/17 10:20:13;;;;;;;18.70;11.98;;;333.20;1228.80;;;;;;5038709;28;20032;-82
2021/04/17 10:22:38;;;;;;;21.00;13.45;;;332.80;1254.40;;;;;;5038157;28;20124;-80
2021/04/17 10:25:09;;;;;;;18.50;11.77;;;308.10;1280.00;;;;;;5037985;28;21392;-81
2021/04/17 10:27:37;;;;;;;24.55;14.68;;;307.80;1305.60;;;;;;5058540;28;20017;-82
2021/04/17 10:30:15;;;;;;;40.65;32.67;;;307.60;1280.00;;;;;;5059849;28;20021;-79
2021/04/17 10:32:41;;;;;;;15.75;9.43;;;307.40;1331.20;;;;;;5062528;28;20095;-82
2021/04/17 10:35:09;;;;;;;14.43;10.00;;;307.40;1280.00;;;;;;5064260;28;20506;-79
2021/04/17 10:37:47;;;;;;;26.80;10.77;;;307.70;1203.20;;;;;;5033135;28;20601;-80
2021/04/17 10:40:18;;;;;;;18.95;10.23;;;307.80;1254.40;;;;;;5033449;28;20025;-82
2021/04/17 10:42:55;;;;;;;14.32;10.15;;;307.80;1254.40;;;;;;5054080;28;20033;-81
2021/04/17 10:45:36;;;;;;;19.60;12.77;;;307.80;1331.20;;;;;;5068375;28;20056;-80
2021/04/17 10:48:06;;;;;;;21.92;14.35;;;307.90;1305.60;;;;;;5079731;28;20553;-80
2021/04/17 10:50:37;;;;;;;15.35;10.30;;;307.90;1305.60;;;;;;5074068;28;20020;-81
2021/04/17 10:53:13;;;;;;;71.45;34.97;;;307.80;1254.40;;;;;;5053692;28;20074;-80
2021/04/17 10:55:42;;;;;;;174.70;90.15;;;307.70;1305.60;;;;;;5084344;28;20067;-81
2021/04/17 10:58:33;;;;;;;33.97;18.40;;;307.30;1280.00;;;;;;5071834;28;20024;-79
2021/04/17 11:03:45;;;;;;;13.50;9.18;;;307.20;1331.20;;;;;;5225202;22;20084;-79
2021/04/17 11:06:20;;;;;;;13.98;10.07;;;282.50;1280.00;;;;;;5074080;28;20084;-80
2021/04/17 11:08:47;;;;;;;12.68;8.95;;;307.20;1305.60;;;;;;5073549;28;20063;-83
2021/04/17 11:11:17;;;;;;;15.18;9.23;;;307.40;1305.60;;;;;;5073350;28;20024;-84
2021/04/17 11:13:44;;;;;;;15.85;9.63;;;307.20;1305.60;;;;;;5091047;28;20017;-82
2021/04/17 11:16:12;;;;;;;14.23;9.02;;;307.20;1280.00;;;;;;5073234;28;20469;-81
2021/04/17 11:18:41;;;;;;;14.98;9.63;;;307.20;1331.20;;;;;;5074276;28;20046;-78
2021/04/17 11:21:14;;;;;;;33.38;16.73;;;282.40;1305.60;;;;;;5086671;22;20007;-83
2021/04/17 11:23:44;;;;;;;38.47;19.10;;;307.30;1331.20;;;;;;5053179;28;20089;-79
2021/04/17 11:26:25;;;;;;;90.90;44.15;;;307.30;1331.20;;;;;;5065447;28;20040;-78
2021/04/17 11:28:57;;;;;;;82.97;33.58;;;307.20;1356.80;;;;;;5065603;28;20359;-79
2021/04/17 11:31:25;;;;;;;15.57;11.38;;;307.30;1331.20;;;;;;5070854;28;20032;-78
2021/04/17 11:33:53;;;;;;;14.30;8.50;;;307.30;1254.40;;;;;;5071001;28;20131;-81
2021/04/17 11:36:21;;;;;;;15.20;9.93;;;307.30;1305.60;;;;;;5070854;28;20021;-79
2021/04/17 11:41:13;;;;;;;14.95;10.13;;;307.30;1254.40;;;;;;5072399;23;20408;-83
2021/04/17 11:43:38;;;;;;;;;;;307.40;1331.20;;;;;;5071672;28;20032;-80
2021/04/17 11:46:04;;;;;;;14.18;9.15;;;307.40;1331.20;;;;;;5071144;28;20345;-79
2021/04/17 11:48:30;;;;;;;15.55;9.30;;;307.20;1305.60;;;;;;5071466;28;20060;-78
2021/04/17 11:50:57;;;;;;;15.95;10.13;;;307.30;1254.40;;;;;;5071122;28;20488;-79
2021/04/17 11:53:23;;;;;;;16.80;8.55;;;307.50;1254.40;;;;;;5071030;28;20028;-78
2021/04/17 11:55:52;;;;;;;12.32;8.65;;;307.40;1305.60;;;;;;5071486;28;20021;-77
2021/04/17 11:58:19;;;;;;;13.02;9.05;;;307.30;1280.00;;;;;;5075172;28;20099;-81
2021/04/17 12:00:45;;;;;;;16.27;8.13;;;307.20;1331.20;;;;;;5084067;23;20044;-80
2021/04/17 12:03:15;;;;;;;13.50;9.50;;;307.30;1331.20;;;;;;5076624;28;20020;-77
2021/04/17 12:05:41;;;;;;;19.27;10.48;;;307.20;1331.20;;;;;;5094805;28;20016;-79
2021/04/17 12:08:07;;;;;;;14.35;8.80;;;307.20;1331.20;;;;;;5076351;28;20046;-77
2021/04/17 12:10:33;;;;;;;13.15;9.10;;;307.30;1305.60;;;;;;5091984;28;20492;-76
2021/04/17 12:12:59;;;;;;;16.75;9.77;;;282.50;1305.60;;;;;;5075526;28;20035;-79
2021/04/17 12:15:24;;;;;;;14.02;9.40;;;282.50;1305.60;;;;;;5093109;28;20028;-77
2021/04/17 12:17:50;;;;;;;;;;;282.50;1305.60;;;;;;5076673;28;20070;-83
2021/04/17 12:20:16;;;;;;;13.23;9.25;;;307.40;1280.00;;;;;;5094287;28;20447;-84
2021/04/17 12:22:41;;;;;;;;;;;307.50;1280.00;;;;;;5094880;28;20023;-84
2021/04/17 12:25:08;;;;;;;16.05;9.10;;;307.50;1331.20;;;;;;5075632;28;19907;-84
2021/04/17 12:27:35;;;;;;;17.42;10.90;;;307.30;1356.80;;;;;;5093690;28;20020;-84
2021/04/17 12:30:02;;;;;;;23.60;12.45;;;307.30;1382.40;;;;;;5075435;28;20103;-83
2021/04/17 12:32:29;;;;;;;22.75;11.32;;;307.20;1408.00;;;;;;5092640;28;20020;-76
2021/04/17 12:34:56;;;;;;;22.45;12.80;;;307.20;1356.80;;;;;;5091987;28;20477;-77
2021/04/17 12:37:22;;;;;;;16.20;9.30;;;307.20;1382.40;;;;;;5093420;28;20043;-84
2021/04/17 12:39:48;;;;;;;11.70;7.93;;;307.40;1356.80;;;;;;5092755;28;20492;-79
2021/04/17 12:42:14;;;;;;;13.05;8.65;;;307.50;1331.20;;;;;;5092989;28;20036;-81
2021/04/17 12:44:40;;;;;;;14.98;9.18;;;307.60;1331.20;;;;;;5094406;28;20016;-78